createdAt,value
2018-11-26T00:01:23.828Z,40.33
2018-11-26T00:03:53.196Z,42.60
2018-11-26T00:06:23.599Z,40.50
2018-11-26T00:08:52.990Z,40.87
2018-11-26T00:11:30.279Z,39.97
2018-11-26T00:13:59.530Z,41.17
2018-11-26T00:16:29.561Z,43.33
2018-11-26T00:18:59.794Z,41.27
2018-11-26T00:21:30.009Z,39.80
2018-11-26T00:24:00.573Z,43.47
2018-11-26T00:26:30.071Z,36.37
2018-11-26T00:29:00.761Z,39.10
2018-11-26T00:31:30.116Z,37.43
2018-11-26T00:33:59.425Z,35.57
2018-11-26T00:36:30.279Z,33.97
2018-11-26T00:38:59.724Z,38.87
2018-11-26T00:41:29.035Z,37.43
2018-11-26T00:43:58.221Z,32.07
2018-11-26T00:46:28.118Z,29.50
2018-11-26T00:48:59.804Z,34.33
2018-11-26T00:51:29.499Z,37.07
2018-11-26T00:54:00.268Z,30.97
2018-11-26T00:56:32.021Z,33.33
2018-11-26T00:59:01.903Z,30.83
2018-11-26T01:01:33.192Z,31.43
2018-11-26T01:04:03.359Z,34.17
2018-11-26T01:06:33.303Z,33.67
2018-11-26T01:09:02.468Z,30.97
2018-11-26T01:11:31.950Z,30.00
2018-11-26T01:14:02.979Z,31.80
2018-11-26T01:16:34.028Z,30.83
2018-11-26T01:19:07.169Z,30.10
2018-11-26T01:21:36.882Z,33.13
2018-11-26T01:24:06.380Z,33.87
2018-11-26T01:26:37.400Z,29.90
2018-11-26T01:29:08.334Z,31.17
2018-11-26T01:31:44.648Z,30.53
2018-11-26T01:34:14.858Z,35.33
2018-11-26T01:36:46.456Z,29.77
2018-11-26T01:39:16.751Z,29.33
2018-11-26T01:41:46.815Z,32.83
2018-11-26T01:44:17.679Z,31.83
2018-11-26T01:46:47.044Z,34.60
2018-11-26T01:49:16.354Z,36.33
2018-11-26T01:51:46.451Z,33.70
2018-11-26T01:54:15.758Z,35.67
2018-11-26T01:56:45.856Z,36.47
2018-11-26T01:59:17.511Z,37.03
2018-11-26T02:01:47.683Z,37.43
2018-11-26T02:04:17.358Z,36.30
2018-11-26T02:06:47.036Z,40.57
2018-11-26T02:09:16.169Z,40.63
2018-11-26T02:11:45.725Z,34.80
2018-11-26T02:14:16.895Z,38.10
2018-11-26T02:16:47.095Z,37.53
2018-11-26T02:19:18.994Z,32.87
2018-11-26T02:21:48.276Z,37.47
2018-11-26T02:24:17.458Z,37.17
2018-11-26T02:26:47.255Z,38.73
2018-11-26T02:29:16.398Z,35.43
2018-11-26T02:31:46.680Z,38.13
2018-11-26T02:34:15.827Z,36.70
2018-11-26T02:36:45.085Z,41.47
2018-11-26T02:39:14.297Z,36.60
2018-11-26T02:41:43.469Z,39.93
2018-11-26T02:44:12.594Z,36.67
2018-11-26T02:46:41.834Z,36.93
2018-11-26T02:49:11.047Z,37.13
2018-11-26T02:51:40.403Z,36.07
2018-11-26T02:54:09.667Z,39.27
2018-11-26T02:56:39.158Z,39.43
2018-11-26T02:59:08.441Z,36.20
2018-11-26T03:01:39.711Z,43.17
2018-11-26T03:04:08.988Z,38.67
2018-11-26T03:06:38.509Z,37.53
2018-11-26T03:09:08.166Z,36.30
2018-11-26T03:11:37.336Z,39.63
2018-11-26T03:14:07.016Z,38.83
2018-11-26T03:16:36.241Z,38.13
2018-11-26T03:19:05.532Z,39.20
2018-11-26T03:21:35.510Z,37.80
2018-11-26T03:24:04.656Z,41.47
2018-11-26T03:26:33.973Z,41.77
2018-11-26T03:29:03.509Z,43.83
2018-11-26T03:31:34.719Z,40.70
2018-11-26T03:34:03.876Z,44.47
2018-11-26T03:36:33.095Z,42.73
2018-11-26T03:39:02.251Z,40.27
2018-11-26T03:41:31.401Z,40.23
2018-11-26T03:44:00.503Z,42.33
2018-11-26T03:46:29.695Z,43.67
2018-11-26T03:48:59.024Z,42.53
2018-11-26T03:51:28.263Z,42.23
2018-11-26T03:53:57.569Z,41.73
2018-11-26T03:56:26.810Z,39.60
2018-11-26T03:58:56.859Z,43.50
2018-11-26T04:01:26.078Z,38.93
2018-11-26T04:03:55.247Z,41.07
2018-11-26T04:06:26.831Z,39.17
2018-11-26T04:08:59.926Z,43.50
2018-11-26T04:11:31.564Z,39.47
2018-11-26T04:14:02.245Z,44.27
2018-11-26T04:16:33.335Z,40.17
2018-11-26T04:19:06.793Z,40.57
2018-11-26T04:21:39.454Z,38.43
2018-11-26T04:24:13.514Z,39.80
2018-11-26T04:26:45.976Z,38.77
2018-11-26T04:29:18.212Z,43.30
2018-11-26T04:31:49.804Z,41.13
2018-11-26T04:34:23.971Z,36.67
2018-11-26T04:36:56.449Z,35.73
2018-11-26T04:39:28.446Z,32.53
2018-11-26T04:41:58.797Z,33.27
2018-11-26T04:44:28.517Z,33.37
2018-11-26T04:46:57.622Z,37.93
2018-11-26T04:49:27.192Z,34.37
2018-11-26T04:51:56.350Z,33.90
2018-11-26T04:54:26.417Z,32.97
2018-11-26T04:56:55.459Z,33.70
2018-11-26T04:59:24.828Z,31.67
2018-11-26T05:01:53.927Z,34.67
2018-11-26T05:04:22.980Z,36.13
2018-11-26T05:06:52.041Z,34.93
2018-11-26T05:09:21.114Z,30.90
2018-11-26T05:11:50.196Z,35.23
2018-11-26T05:14:19.310Z,34.50
2018-11-26T05:16:48.493Z,35.93
2018-11-26T05:19:17.517Z,34.23
2018-11-26T05:21:46.739Z,37.30
2018-11-26T05:24:15.839Z,38.00
2018-11-26T05:26:45.043Z,37.23
2018-11-26T05:29:14.286Z,31.47
2018-11-26T05:31:43.474Z,33.57
2018-11-26T05:34:12.601Z,33.53
2018-11-26T05:36:41.764Z,34.60
2018-11-26T05:39:10.862Z,36.23
2018-11-26T05:41:40.427Z,36.33
2018-11-26T05:44:09.605Z,35.60
2018-11-26T05:46:40.177Z,35.03
2018-11-26T05:49:09.787Z,36.17
2018-11-26T05:51:39.081Z,35.97
2018-11-26T05:54:08.248Z,31.83
2018-11-26T05:56:37.532Z,35.20
2018-11-26T05:59:06.678Z,34.13
2018-11-26T06:01:35.818Z,36.07
2018-11-26T06:04:05.190Z,33.83
2018-11-26T06:06:34.354Z,36.27
2018-11-26T06:09:04.209Z,35.80
2018-11-26T06:11:33.367Z,33.70
2018-11-26T06:14:02.457Z,35.60
2018-11-26T06:16:31.919Z,37.27
2018-11-26T06:19:01.041Z,39.47
2018-11-26T06:21:30.206Z,35.63
2018-11-26T06:23:59.746Z,40.03
2018-11-26T06:26:28.854Z,39.47
2018-11-26T06:28:57.872Z,42.77
2018-11-26T06:31:26.948Z,40.37
2018-11-26T06:33:56.010Z,38.83
2018-11-26T06:36:25.090Z,42.30
2018-11-26T06:38:54.122Z,40.10
2018-11-26T06:41:23.328Z,42.33
2018-11-26T06:43:52.407Z,41.07
2018-11-26T06:46:21.553Z,42.87
2018-11-26T06:48:50.567Z,45.67
2018-11-26T06:51:19.666Z,42.93
2018-11-26T06:53:48.749Z,43.47
2018-11-26T06:56:18.075Z,44.37
2018-11-26T06:58:47.214Z,49.53
2018-11-26T07:01:16.337Z,44.30
2018-11-26T07:03:45.408Z,52.67
2018-11-26T07:06:14.555Z,45.20
2018-11-26T07:08:43.700Z,46.50
2018-11-26T07:11:12.850Z,47.80
2018-11-26T07:13:42.440Z,48.57
2018-11-26T07:16:11.570Z,53.57
2018-11-26T07:18:40.961Z,46.20
2018-11-26T07:21:10.038Z,47.13
2018-11-26T07:23:40.355Z,45.07
2018-11-26T07:26:09.624Z,42.60
2018-11-26T07:28:39.027Z,44.17
2018-11-26T07:31:08.758Z,44.13
2018-11-26T07:33:38.520Z,41.73
2018-11-26T07:36:11.464Z,43.97
2018-11-26T07:38:37.379Z,42.13
2018-11-26T07:41:07.449Z,46.60
2018-11-26T07:43:37.475Z,47.93
2018-11-26T07:46:07.147Z,42.33
2018-11-26T07:48:36.435Z,49.77
2018-11-26T07:51:06.515Z,44.57
2018-11-26T07:53:35.582Z,42.67
2018-11-26T07:56:04.864Z,42.70
2018-11-26T07:58:34.060Z,44.77
2018-11-26T08:01:03.202Z,46.40
2018-11-26T08:03:32.375Z,36.77
2018-11-26T08:06:02.404Z,46.60
2018-11-26T08:08:30.627Z,43.90
2018-11-26T08:10:59.794Z,43.80
2018-11-26T08:13:28.978Z,47.37
2018-11-26T08:15:58.060Z,44.13
2018-11-26T08:18:27.242Z,44.60
2018-11-26T08:20:56.373Z,45.47
2018-11-26T08:23:26.193Z,43.03
2018-11-26T08:25:55.362Z,42.97
2018-11-26T08:28:25.211Z,43.30
2018-11-26T08:30:54.479Z,37.37
2018-11-26T08:33:23.524Z,42.13
2018-11-26T08:35:56.894Z,36.57
2018-11-26T08:38:30.882Z,40.27
2018-11-26T08:41:05.315Z,39.53
2018-11-26T08:43:34.471Z,39.37
2018-11-26T08:46:09.273Z,38.63
2018-11-26T08:48:43.745Z,42.77
2018-11-26T08:51:12.975Z,38.87
2018-11-26T08:53:42.315Z,34.43
2018-11-26T08:56:11.399Z,37.67
2018-11-26T08:58:41.399Z,36.53
2018-11-26T09:01:15.882Z,39.87
2018-11-26T09:03:55.718Z,37.73
2018-11-26T09:06:24.955Z,34.63
2018-11-26T09:08:54.094Z,38.50
2018-11-26T09:11:23.958Z,36.03
2018-11-26T09:13:53.353Z,35.40
2018-11-26T09:16:22.477Z,35.37
2018-11-26T09:18:51.849Z,39.50
2018-11-26T09:21:21.035Z,41.40
2018-11-26T09:23:50.923Z,37.47
2018-11-26T09:26:20.141Z,34.13
2018-11-26T09:28:49.286Z,36.60
2018-11-26T09:31:20.405Z,40.47
2018-11-26T09:33:49.789Z,33.13
2018-11-26T09:36:20.001Z,34.10
2018-11-26T09:38:49.216Z,37.07
2018-11-26T09:41:20.274Z,34.57
2018-11-26T09:43:49.399Z,31.77
2018-11-26T09:46:18.576Z,32.87
2018-11-26T09:48:47.711Z,32.37
2018-11-26T09:51:16.998Z,31.70
2018-11-26T09:53:46.301Z,35.23
2018-11-26T09:56:16.529Z,31.43
2018-11-26T09:58:46.329Z,30.97
2018-11-26T10:01:16.280Z,32.63
2018-11-26T10:03:45.486Z,33.30
2018-11-26T10:06:15.002Z,32.73
2018-11-26T10:08:44.204Z,29.60
2018-11-26T10:11:13.384Z,30.50
2018-11-26T10:13:42.497Z,29.67
2018-11-26T10:16:11.689Z,29.23
2018-11-26T10:18:41.602Z,27.67
2018-11-26T10:21:10.839Z,32.37
2018-11-26T10:23:41.412Z,30.43
2018-11-26T10:26:11.018Z,26.53
2018-11-26T10:28:40.940Z,26.30
2018-11-26T10:31:10.911Z,26.90
2018-11-26T10:33:40.453Z,25.00
2018-11-26T10:36:10.554Z,28.57
2018-11-26T10:38:40.438Z,30.67
2018-11-26T10:41:09.610Z,27.30
2018-11-26T10:43:39.364Z,27.30
2018-11-26T10:46:08.595Z,25.37
2018-11-26T10:48:37.723Z,29.13
2018-11-26T10:51:07.147Z,30.57
2018-11-26T10:53:36.347Z,27.93
2018-11-26T10:56:07.650Z,27.03
2018-11-26T10:58:36.775Z,27.13
2018-11-26T11:01:11.418Z,24.70
2018-11-26T11:03:41.885Z,27.10
2018-11-26T11:06:12.754Z,24.10
2018-11-26T11:08:42.108Z,27.97
2018-11-26T11:11:11.422Z,28.10
2018-11-26T11:13:41.012Z,27.73
2018-11-26T11:16:10.290Z,25.10
2018-11-26T11:18:41.582Z,27.03
2018-11-26T11:21:10.912Z,26.30
2018-11-26T11:23:40.675Z,25.97
2018-11-26T11:26:11.579Z,25.50
2018-11-26T11:28:41.801Z,23.10
2018-11-26T11:31:11.215Z,23.07
2018-11-26T11:33:40.820Z,24.60
2018-11-26T11:36:10.110Z,20.07
2018-11-26T11:38:41.947Z,22.27
2018-11-26T11:41:11.894Z,22.60
2018-11-26T11:43:41.148Z,25.37
2018-11-26T11:46:11.627Z,36.53
2018-11-26T11:48:41.989Z,22.27
2018-11-26T11:51:11.252Z,25.47
2018-11-26T11:53:40.710Z,24.27
2018-11-26T11:56:10.730Z,24.53
2018-11-26T11:58:40.654Z,25.77
2018-11-26T12:01:10.742Z,21.17
2018-11-26T12:03:40.219Z,20.73
2018-11-26T12:06:09.596Z,21.97
2018-11-26T12:08:39.026Z,21.43
2018-11-26T12:11:09.869Z,24.63
2018-11-26T12:13:40.074Z,22.23
2018-11-26T12:16:11.789Z,22.03
2018-11-26T12:18:40.987Z,18.93
2018-11-26T12:21:10.207Z,24.67
2018-11-26T12:23:39.702Z,19.90
2018-11-26T12:26:09.592Z,22.57
2018-11-26T12:28:40.076Z,20.93
2018-11-26T12:31:10.039Z,20.83
2018-11-26T12:33:40.671Z,26.40
2018-11-26T12:36:10.588Z,22.37
2018-11-26T12:38:40.439Z,23.93
2018-11-26T12:41:09.712Z,23.00
2018-11-26T12:43:40.064Z,24.40
2018-11-26T12:46:09.142Z,23.10
2018-11-26T12:48:38.646Z,23.87
2018-11-26T12:51:07.953Z,26.87
2018-11-26T12:53:38.208Z,26.63
2018-11-26T12:56:09.876Z,30.20
2018-11-26T12:58:40.047Z,31.80
2018-11-26T13:01:09.220Z,27.17
2018-11-26T13:03:40.300Z,31.17
2018-11-26T13:06:09.847Z,32.17
2018-11-26T13:08:40.434Z,30.03
2018-11-26T13:11:09.559Z,31.23
2018-11-26T13:13:41.589Z,30.93
2018-11-26T13:16:11.866Z,31.17
2018-11-26T13:18:41.125Z,34.13
2018-11-26T13:21:10.289Z,31.30
2018-11-26T13:23:40.597Z,33.50
2018-11-26T13:26:09.892Z,30.33
2018-11-26T13:28:39.743Z,37.83
2018-11-26T13:31:09.018Z,37.47
2018-11-26T13:33:38.588Z,34.37
2018-11-26T13:36:07.890Z,35.17
2018-11-26T13:38:37.261Z,31.83
2018-11-26T13:41:06.551Z,35.40
2018-11-26T13:43:35.976Z,33.47
2018-11-26T13:46:05.417Z,34.00
2018-11-26T13:48:34.729Z,33.53
2018-11-26T13:51:05.505Z,34.40
2018-11-26T13:53:34.604Z,34.73
2018-11-26T13:56:03.764Z,30.83
2018-11-26T13:58:33.513Z,34.13
2018-11-26T14:01:02.737Z,35.07
2018-11-26T14:03:31.790Z,34.70
2018-11-26T14:06:00.923Z,31.03
2018-11-26T14:08:30.030Z,34.37
2018-11-26T14:10:59.277Z,30.90
2018-11-26T14:13:29.051Z,31.77
2018-11-26T14:15:59.002Z,33.00
2018-11-26T14:18:28.317Z,31.87
2018-11-26T14:20:58.291Z,33.90
2018-11-26T14:23:27.925Z,30.27
2018-11-26T14:25:57.620Z,34.10
2018-11-26T14:28:28.337Z,29.97
2018-11-26T14:30:58.492Z,31.93
2018-11-26T14:33:28.168Z,31.30
2018-11-26T14:35:57.402Z,33.07
2018-11-26T14:38:26.618Z,30.53
2018-11-26T14:40:56.101Z,33.33
2018-11-26T14:43:26.761Z,33.93
2018-11-26T14:45:56.147Z,35.13
2018-11-26T14:48:25.393Z,33.63
2018-11-26T14:50:54.623Z,39.27
2018-11-26T14:53:23.829Z,38.90
2018-11-26T14:55:53.225Z,34.03
2018-11-26T14:58:24.122Z,38.80
2018-11-26T15:00:54.573Z,40.73
2018-11-26T15:03:25.602Z,41.87
2018-11-26T15:05:56.977Z,40.70
2018-11-26T15:08:28.356Z,36.53
2018-11-26T15:10:58.628Z,42.10
2018-11-26T15:13:28.906Z,43.73
2018-11-26T15:15:58.682Z,39.07
2018-11-26T15:18:29.635Z,39.97
2018-11-26T15:20:59.879Z,41.07
2018-11-26T15:23:30.730Z,40.83
2018-11-26T15:26:00.702Z,41.13
2018-11-26T15:28:31.486Z,42.60
2018-11-26T15:31:02.449Z,45.87
2018-11-26T15:33:34.033Z,38.47
2018-11-26T15:36:07.640Z,38.53
2018-11-26T15:38:38.338Z,39.40
2018-11-26T15:41:10.550Z,44.70
2018-11-26T15:43:42.645Z,42.23
2018-11-26T15:46:13.473Z,42.77
2018-11-26T15:48:43.812Z,40.80
2018-11-26T15:51:14.320Z,39.10
2018-11-26T15:53:46.375Z,46.83
2018-11-26T15:56:15.854Z,47.23
2018-11-26T15:58:45.761Z,43.37
2018-11-26T16:01:15.958Z,46.23
2018-11-26T16:03:47.161Z,44.50
2018-11-26T16:06:17.349Z,47.23
2018-11-26T16:08:48.497Z,51.03
2018-11-26T16:11:19.430Z,41.77
2018-11-26T16:13:50.725Z,48.93
2018-11-26T16:16:21.651Z,50.70
2018-11-26T16:18:52.416Z,50.47
2018-11-26T16:21:22.579Z,46.73
2018-11-26T16:23:52.517Z,48.43
2018-11-26T16:26:22.718Z,47.93
2018-11-26T16:28:53.475Z,51.10
2018-11-26T16:31:23.474Z,52.57
2018-11-26T16:33:54.848Z,47.67
2018-11-26T16:36:25.362Z,49.10
2018-11-26T16:38:56.717Z,55.53
2018-11-26T16:41:26.119Z,50.13
2018-11-26T16:43:55.943Z,50.50
2018-11-26T16:46:26.281Z,48.93
2018-11-26T16:48:56.821Z,56.20
2018-11-26T16:51:26.566Z,50.20
2018-11-26T16:53:56.972Z,51.47
2018-11-26T16:56:29.610Z,52.03
2018-11-26T16:59:02.407Z,52.63
2018-11-26T17:01:32.482Z,51.43
2018-11-26T17:04:04.225Z,55.73
2018-11-26T17:06:34.524Z,55.07
2018-11-26T17:09:06.958Z,49.77
2018-11-26T17:11:38.814Z,52.77
2018-11-26T17:14:08.719Z,50.13
2018-11-26T17:16:39.546Z,52.83
2018-11-26T17:19:10.069Z,53.40
2018-11-26T17:21:40.864Z,49.57
2018-11-26T17:24:11.274Z,50.23
2018-11-26T17:26:42.303Z,51.37
2018-11-26T17:29:12.027Z,51.57
2018-11-26T17:31:43.302Z,48.93
2018-11-26T17:34:13.590Z,50.60
2018-11-26T17:36:44.387Z,46.83
2018-11-26T17:39:14.690Z,48.77
2018-11-26T17:41:45.663Z,45.63
2018-11-26T17:44:16.074Z,50.67
2018-11-26T17:46:47.480Z,44.40
2018-11-26T17:49:18.148Z,42.90
2018-11-26T17:51:49.167Z,49.70
2018-11-26T17:54:19.354Z,42.83
2018-11-26T17:56:49.203Z,41.70
2018-11-26T17:59:19.810Z,43.67
2018-11-26T18:01:50.896Z,45.73
2018-11-26T18:04:21.020Z,43.37
2018-11-26T18:06:51.307Z,41.00
2018-11-26T18:09:22.918Z,45.93
2018-11-26T18:11:54.874Z,42.90
2018-11-26T18:14:25.769Z,41.03
2018-11-26T18:16:58.764Z,39.67
2018-11-26T18:19:29.441Z,40.00
2018-11-26T18:21:59.268Z,37.03
2018-11-26T18:24:28.700Z,36.03
2018-11-26T18:26:58.430Z,39.63
2018-11-26T18:29:28.913Z,35.77
2018-11-26T18:31:58.104Z,35.60
2018-11-26T18:34:27.293Z,33.83
2018-11-26T18:36:56.708Z,40.53
2018-11-26T18:39:25.847Z,32.67
2018-11-26T18:41:55.300Z,35.33
2018-11-26T18:44:24.512Z,36.37
2018-11-26T18:46:54.370Z,34.33
2018-11-26T18:49:23.521Z,35.63
2018-11-26T18:51:52.732Z,36.97
2018-11-26T18:54:22.284Z,37.83
2018-11-26T18:56:51.651Z,34.00
2018-11-26T18:59:20.728Z,34.10
2018-11-26T19:01:50.804Z,34.80
2018-11-26T19:04:20.269Z,35.73
2018-11-26T19:06:49.715Z,36.37
2018-11-26T19:09:19.192Z,33.53
2018-11-26T19:11:48.474Z,36.13
2018-11-26T19:14:20.358Z,36.07
2018-11-26T19:16:51.312Z,34.37
2018-11-26T19:19:21.113Z,34.07
2018-11-26T19:21:52.355Z,33.73
2018-11-26T19:24:22.516Z,33.07
2018-11-26T19:26:51.578Z,33.23
2018-11-26T19:29:20.780Z,31.63
2018-11-26T19:31:55.994Z,31.93
2018-11-26T19:34:22.569Z,33.77
2018-11-26T19:36:52.852Z,34.90
2018-11-26T19:39:22.186Z,34.97
2018-11-26T19:41:51.858Z,33.67
2018-11-26T19:44:21.051Z,33.23
2018-11-26T19:46:51.198Z,33.67
2018-11-26T19:49:20.631Z,31.63
2018-11-26T19:51:49.885Z,29.00
2018-11-26T19:54:18.979Z,35.17
2018-11-26T19:56:48.169Z,30.07
2018-11-26T19:59:17.501Z,29.37
2018-11-26T20:01:46.659Z,32.83
2018-11-26T20:04:25.838Z,29.67
2018-11-26T20:06:55.131Z,28.90
2018-11-26T20:09:24.483Z,26.17
2018-11-26T20:11:53.730Z,29.60
2018-11-26T20:14:26.019Z,26.23
2018-11-26T20:16:52.711Z,26.57
2018-11-26T20:19:23.188Z,25.43
2018-11-26T20:21:52.458Z,23.17
2018-11-26T20:24:21.763Z,23.23
2018-11-26T20:26:50.964Z,24.60
2018-11-26T20:29:21.362Z,23.37
2018-11-26T20:31:50.604Z,23.77
2018-11-26T20:34:19.831Z,26.57
2018-11-26T20:36:49.704Z,27.80
2018-11-26T20:39:19.015Z,26.30
2018-11-26T20:41:48.477Z,24.87
2018-11-26T20:44:19.029Z,24.63
2018-11-26T20:46:49.282Z,26.67
2018-11-26T20:49:18.197Z,24.93
2018-11-26T20:51:47.942Z,28.90
2018-11-26T20:54:17.171Z,35.00
2018-11-26T20:56:46.618Z,31.20
2018-11-26T20:59:15.856Z,29.63
2018-11-26T21:01:45.069Z,30.73
2018-11-26T21:04:14.934Z,27.73
2018-11-26T21:06:45.869Z,28.43
2018-11-26T21:09:15.123Z,27.83
2018-11-26T21:11:44.371Z,28.83
2018-11-26T21:14:13.532Z,29.07
2018-11-26T21:16:42.728Z,29.27
2018-11-26T21:19:11.960Z,29.13
2018-11-26T21:21:41.484Z,33.03
2018-11-26T21:24:10.630Z,31.20
2018-11-26T21:26:40.921Z,29.90
2018-11-26T21:29:10.159Z,29.73
2018-11-26T21:31:40.271Z,27.10
2018-11-26T21:34:10.145Z,29.63
2018-11-26T21:36:39.587Z,28.20
2018-11-26T21:39:11.256Z,27.80
2018-11-26T21:41:40.409Z,28.53
2018-11-26T21:44:09.612Z,26.33
2018-11-26T21:46:38.876Z,26.40
2018-11-26T21:49:08.016Z,24.23
2018-11-26T21:51:37.818Z,27.87
2018-11-26T21:54:07.197Z,29.50
2018-11-26T21:56:36.878Z,25.43
2018-11-26T21:59:07.111Z,29.23
2018-11-26T22:01:36.379Z,27.93
2018-11-26T22:04:05.949Z,27.83
2018-11-26T22:06:35.075Z,27.37
2018-11-26T22:09:06.263Z,29.43
2018-11-26T22:11:35.508Z,29.30
2018-11-26T22:14:05.588Z,31.70
2018-11-26T22:16:35.237Z,29.30
2018-11-26T22:19:04.449Z,32.33
2018-11-26T22:21:33.591Z,29.83
2018-11-26T22:24:03.393Z,32.07
2018-11-26T22:26:32.553Z,31.63
2018-11-26T22:29:02.326Z,27.90
2018-11-26T22:31:31.536Z,29.47
2018-11-26T22:34:01.330Z,30.67
2018-11-26T22:36:30.514Z,27.20
2018-11-26T22:38:59.809Z,28.90
2018-11-26T22:41:28.986Z,28.30
2018-11-26T22:43:58.612Z,28.37
2018-11-26T22:46:28.055Z,25.43
2018-11-26T22:48:57.235Z,27.90
2018-11-26T22:51:27.320Z,27.63
2018-11-26T22:53:56.495Z,26.10
2018-11-26T22:56:25.646Z,28.83
2018-11-26T22:58:55.718Z,24.27
2018-11-26T23:01:25.480Z,23.33
2018-11-26T23:03:54.858Z,24.67
2018-11-26T23:06:24.264Z,23.43
2018-11-26T23:08:53.425Z,25.90
2018-11-26T23:11:22.531Z,21.50
2018-11-26T23:13:51.646Z,19.03
2018-11-26T23:16:20.847Z,23.67
2018-11-26T23:18:50.061Z,22.40
2018-11-26T23:21:19.196Z,26.40
2018-11-26T23:23:48.338Z,26.40
2018-11-26T23:26:17.744Z,23.40
2018-11-26T23:28:47.284Z,26.43
2018-11-26T23:31:16.547Z,18.23
2018-11-26T23:33:45.639Z,19.37
2018-11-26T23:36:15.461Z,21.30
2018-11-26T23:38:45.373Z,20.63
2018-11-26T23:41:14.593Z,21.57
2018-11-26T23:43:44.447Z,19.73
2018-11-26T23:46:14.173Z,22.17
2018-11-26T23:48:43.310Z,21.57
2018-11-26T23:51:13.803Z,19.63
2018-11-26T23:53:43.136Z,17.83
2018-11-26T23:56:12.308Z,19.90
2018-11-26T23:58:41.585Z,17.07
